Time;durP1;ratioP1;P1;durP2;ratioP2;P2;SDS_P1;SDS_P2;PMS_P1;PMS_P2;Temp;Humidity;BMP_temperature;BMP_pressure;BME280_temperature;BME280_humidity;BME280_pressure;Samples;Min_cycle;Max_cycle;Signal;HPM_P1;HPM_P2
2023/03/06 00:00:42;;;;;;;4.20;2.10;;;;;;;;;;5082749;28;20196;-68
2023/03/06 00:03:09;;;;;;;2.83;1.97;;;;;;;;;;5070148;28;20284;-68
2023/03/06 00:05:36;;;;;;;2.37;2.17;;;;;;;;;;5076852;28;20211;-70
2023/03/06 00:08:04;;;;;;;2.70;2.10;;;;;;;;;;5085799;28;20599;-68
2023/03/06 00:10:32;;;;;;;2.87;2.43;;;;;;;;;;5084514;28;20596;-68
2023/03/06 00:13:00;;;;;;;2.23;1.60;;;;;;;;;;5085775;28;20207;-68
2023/03/06 00:15:27;;;;;;;3.03;1.97;;;;;;;;;;5086340;28;20690;-70
2023/03/06 00:17:56;;;;;;;1.80;1.70;;;;;;;;;;5085732;28;20203;-68
2023/03/06 00:20:27;;;;;;;7.07;2.13;;;;;;;;;;5085945;28;20237;-67
2023/03/06 00:22:55;;;;;;;2.50;2.30;;;;;;;;;;5086001;28;20617;-67
2023/03/06 00:25:23;;;;;;;2.13;1.93;;;;;;;;;;5086274;28;20209;-67
2023/03/06 00:27:50;;;;;;;3.90;2.30;;;;;;;;;;5086129;28;20267;-67
2023/03/06 00:30:18;;;;;;;2.53;1.60;;;;;;;;;;5087207;28;20198;-70
2023/03/06 00:32:46;;;;;;;3.07;2.43;;;;;;;;;;5090159;28;20722;-67
2023/03/06 00:35:14;;;;;;;2.53;2.10;;;;;;;;;;5089957;28;20215;-67
2023/03/06 00:37:41;;;;;;;2.23;2.07;;;;;;;;;;5089687;28;20288;-67
2023/03/06 00:40:10;;;;;;;2.90;2.00;;;;;;;;;;5089733;28;20210;-67
2023/03/06 00:42:37;;;;;;;2.27;1.77;;;;;;;;;;5085044;28;20435;-67
2023/03/06 00:45:04;;;;;;;6.20;2.20;;;;;;;;;;5090241;28;20198;-69
2023/03/06 00:47:31;;;;;;;1.83;1.73;;;;;;;;;;5089966;28;20305;-67
2023/03/06 00:49:58;;;;;;;4.27;2.13;;;;;;;;;;5089578;28;20225;-68
2023/03/06 00:52:27;;;;;;;4.27;2.27;;;;;;;;;;5090251;28;20260;-68
2023/03/06 00:54:54;;;;;;;2.50;2.30;;;;;;;;;;5089815;28;20196;-68
2023/03/06 00:57:21;;;;;;;2.27;1.53;;;;;;;;;;5089899;28;20245;-68
2023/03/06 00:59:48;;;;;;;2.97;2.00;;;;;;;;;;5089754;28;20264;-68
2023/03/06 01:02:15;;;;;;;1.87;1.60;;;;;;;;;;5089519;28;20208;-68
2023/03/06 01:04:42;;;;;;;3.57;2.17;;;;;;;;;;5089332;28;20207;-67
2023/03/06 01:07:09;;;;;;;1.97;1.87;;;;;;;;;;5089424;28;20724;-67
2023/03/06 01:09:38;;;;;;;1.80;1.70;;;;;;;;;;5089415;28;20204;-68
2023/03/06 01:12:05;;;;;;;2.00;1.80;;;;;;;;;;5088913;28;20214;-68
2023/03/06 01:14:32;;;;;;;4.60;2.53;;;;;;;;;;5084590;28;20199;-68
2023/03/06 01:16:59;;;;;;;5.23;2.23;;;;;;;;;;5089639;28;20210;-68
2023/03/06 01:19:26;;;;;;;1.63;1.53;;;;;;;;;;5089233;28;20206;-68
2023/03/06 01:21:53;;;;;;;1.80;1.70;;;;;;;;;;5089555;28;20291;-68
2023/03/06 01:24:21;;;;;;;3.03;1.90;;;;;;;;;;5089163;28;20252;-67
2023/03/06 01:26:49;;;;;;;1.70;1.60;;;;;;;;;;5089023;28;20308;-67
2023/03/06 01:29:16;;;;;;;2.00;1.90;;;;;;;;;;5089073;28;20214;-68
2023/03/06 01:31:43;;;;;;;2.40;1.57;;;;;;;;;;5089034;28;20215;-67
2023/03/06 01:34:10;;;;;;;1.97;1.87;;;;;;;;;;5089450;28;20645;-67
2023/03/06 01:36:37;;;;;;;3.70;2.67;;;;;;;;;;5088857;28;20209;-68
2023/03/06 01:39:04;;;;;;;4.40;1.60;;;;;;;;;;5088487;28;20625;-68
2023/03/06 01:41:32;;;;;;;2.30;2.00;;;;;;;;;;5088292;28;20195;-68
2023/03/06 01:44:00;;;;;;;5.17;2.00;;;;;;;;;;5088792;28;20227;-68
2023/03/06 01:46:32;;;;;;;2.13;1.97;;;;;;;;;;5088785;28;20199;-68
2023/03/06 01:49:01;;;;;;;2.33;2.13;;;;;;;;;;5088591;28;20252;-68
2023/03/06 01:51:30;;;;;;;2.13;1.93;;;;;;;;;;5088881;28;20206;-67
2023/03/06 01:53:58;;;;;;;3.23;1.97;;;;;;;;;;5088841;28;20195;-67
2023/03/06 01:56:25;;;;;;;2.90;2.43;;;;;;;;;;5088554;28;20215;-68
2023/03/06 01:58:53;;;;;;;2.00;1.90;;;;;;;;;;5086655;28;20275;-68
2023/03/06 02:01:22;;;;;;;1.77;1.67;;;;;;;;;;5085467;28;20586;-68
2023/03/06 02:03:49;;;;;;;1.80;1.70;;;;;;;;;;5085800;28;20219;-67
2023/03/06 02:06:20;;;;;;;1.90;1.80;;;;;;;;;;5086926;28;20295;-68
2023/03/06 02:08:47;;;;;;;19.03;2.63;;;;;;;;;;5088359;28;20206;-68
2023/03/06 02:11:16;;;;;;;2.00;1.90;;;;;;;;;;5088094;28;20299;-67
2023/03/06 02:13:43;;;;;;;1.70;1.40;;;;;;;;;;5088279;28;20232;-67
2023/03/06 02:16:11;;;;;;;2.13;1.90;;;;;;;;;;5088486;28;20212;-67
2023/03/06 02:18:40;;;;;;;2.33;1.57;;;;;;;;;;5088504;28;20202;-67
2023/03/06 02:21:11;;;;;;;3.83;2.27;;;;;;;;;;5088033;28;20314;-68
2023/03/06 02:23:45;;;;;;;1.93;1.83;;;;;;;;;;5088040;28;20701;-67
2023/03/06 02:26:14;;;;;;;4.00;2.23;;;;;;;;;;5088029;28;20277;-70
2023/03/06 02:28:41;;;;;;;2.20;2.03;;;;;;;;;;5086085;28;20866;-67
2023/03/06 02:31:08;;;;;;;4.00;2.47;;;;;;;;;;5088124;28;20217;-68
2023/03/06 02:33:35;;;;;;;3.37;1.20;;;;;;;;;;5088272;28;20198;-67
2023/03/06 02:36:03;;;;;;;2.67;1.80;;;;;;;;;;5088130;28;20202;-68
2023/03/06 02:38:33;;;;;;;3.77;1.70;;;;;;;;;;5088107;28;20343;-67
2023/03/06 02:41:00;;;;;;;1.63;1.53;;;;;;;;;;5086655;28;20206;-67
2023/03/06 02:43:29;;;;;;;2.13;2.00;;;;;;;;;;5088245;28;20233;-67
2023/03/06 02:45:56;;;;;;;6.17;1.93;;;;;;;;;;5088256;28;20210;-68
2023/03/06 02:48:23;;;;;;;3.47;1.93;;;;;;;;;;5087634;28;20214;-68
2023/03/06 02:50:50;;;;;;;1.77;1.50;;;;;;;;;;5087531;28;20210;-68
2023/03/06 02:53:18;;;;;;;1.67;1.60;;;;;;;;;;5086620;28;20213;-67
2023/03/06 02:55:46;;;;;;;2.87;1.97;;;;;;;;;;5087848;28;20584;-68
2023/03/06 02:58:13;;;;;;;3.00;1.80;;;;;;;;;;5087749;28;20692;-67
2023/03/06 03:00:41;;;;;;;3.60;2.30;;;;;;;;;;5087222;28;20202;-67
2023/03/06 03:03:09;;;;;;;5.47;1.80;;;;;;;;;;5086207;28;20229;-67
2023/03/06 03:05:36;;;;;;;2.60;1.97;;;;;;;;;;5087507;28;20202;-68
2023/03/06 03:08:03;;;;;;;2.70;2.00;;;;;;;;;;5087624;28;20210;-67
2023/03/06 03:10:30;;;;;;;2.17;1.90;;;;;;;;;;5087978;28;20308;-68
2023/03/06 03:12:57;;;;;;;2.87;2.13;;;;;;;;;;5087238;28;20206;-68
2023/03/06 03:15:25;;;;;;;2.40;2.20;;;;;;;;;;5087527;28;20255;-67
2023/03/06 03:17:53;;;;;;;2.30;2.03;;;;;;;;;;5087698;28;20683;-67
2023/03/06 03:20:21;;;;;;;1.90;1.80;;;;;;;;;;5087764;28;20207;-68
2023/03/06 03:22:49;;;;;;;1.50;1.43;;;;;;;;;;5087690;28;20222;-68
2023/03/06 03:25:16;;;;;;;1.73;1.30;;;;;;;;;;5087648;28;20274;-68
2023/03/06 03:27:43;;;;;;;1.77;1.13;;;;;;;;;;5088016;28;20210;-67
2023/03/06 03:30:11;;;;;;;1.67;1.57;;;;;;;;;;5087815;28;20277;-68
2023/03/06 03:32:38;;;;;;;1.57;1.50;;;;;;;;;;5087592;28;20207;-68
2023/03/06 03:35:08;;;;;;;2.90;1.13;;;;;;;;;;5087736;28;20202;-68
2023/03/06 03:37:35;;;;;;;1.50;1.30;;;;;;;;;;5087544;28;20687;-68
2023/03/06 03:40:03;;;;;;;3.03;2.03;;;;;;;;;;5087556;28;20204;-68
2023/03/06 03:42:30;;;;;;;1.43;1.33;;;;;;;;;;5087428;28;20217;-68
2023/03/06 03:44:58;;;;;;;1.73;1.60;;;;;;;;;;5087585;28;20332;-68
2023/03/06 03:47:25;;;;;;;1.57;1.20;;;;;;;;;;5087243;28;20261;-68
2023/03/06 03:49:52;;;;;;;1.20;1.10;;;;;;;;;;5087184;28;20205;-69
2023/03/06 03:52:20;;;;;;;1.97;1.80;;;;;;;;;;5082086;28;20259;-69
2023/03/06 03:54:47;;;;;;;2.20;1.47;;;;;;;;;;5086968;28;20646;-68
2023/03/06 03:57:14;;;;;;;1.40;1.30;;;;;;;;;;5086301;28;20589;-69
2023/03/06 03:59:41;;;;;;;1.60;1.30;;;;;;;;;;5086851;28;20206;-69
2023/03/06 04:02:08;;;;;;;1.47;1.40;;;;;;;;;;5082867;28;20668;-68
2023/03/06 04:04:35;;;;;;;2.80;1.70;;;;;;;;;;5086192;28;20218;-68
2023/03/06 04:07:03;;;;;;;2.20;1.80;;;;;;;;;;5077075;28;20238;-68
2023/03/06 04:09:31;;;;;;;4.60;1.83;;;;;;;;;;5086828;28;20203;-69
2023/03/06 04:11:58;;;;;;;1.70;1.60;;;;;;;;;;5086571;28;20202;-68
2023/03/06 04:14:25;;;;;;;1.50;1.37;;;;;;;;;;5086910;28;20202;-68
2023/03/06 04:16:52;;;;;;;2.97;1.37;;;;;;;;;;5086157;28;20207;-68
2023/03/06 04:19:19;;;;;;;1.07;1.07;;;;;;;;;;5085976;28;20634;-68
2023/03/06 04:21:46;;;;;;;1.70;1.60;;;;;;;;;;5086358;28;20226;-68
2023/03/06 04:24:14;;;;;;;1.67;1.30;;;;;;;;;;5086049;28;20647;-66
2023/03/06 04:26:42;;;;;;;3.07;2.07;;;;;;;;;;5085891;28;20206;-68
2023/03/06 04:29:09;;;;;;;1.60;1.50;;;;;;;;;;5086599;28;20202;-67
2023/03/06 04:31:36;;;;;;;5.63;2.00;;;;;;;;;;5086350;28;20228;-68
2023/03/06 04:34:03;;;;;;;1.33;1.27;;;;;;;;;;5086067;28;20202;-68
2023/03/06 04:36:31;;;;;;;0.93;0.93;;;;;;;;;;5086238;28;20198;-68
2023/03/06 04:38:59;;;;;;;1.50;1.40;;;;;;;;;;5086001;28;20258;-68
2023/03/06 04:41:26;;;;;;;1.10;1.10;;;;;;;;;;5086125;28;20627;-68
2023/03/06 04:43:54;;;;;;;1.20;1.07;;;;;;;;;;5086139;28;20234;-68
2023/03/06 04:46:21;;;;;;;5.93;1.63;;;;;;;;;;5085803;28;20623;-68
2023/03/06 04:48:48;;;;;;;1.87;1.77;;;;;;;;;;5085704;28;20915;-68
2023/03/06 04:51:16;;;;;;;1.83;1.57;;;;;;;;;;5085811;28;20615;-68
2023/03/06 04:53:43;;;;;;;2.60;2.37;;;;;;;;;;5086416;28;20206;-68
2023/03/06 04:56:10;;;;;;;2.53;1.67;;;;;;;;;;5085500;28;20214;-68
2023/03/06 04:58:37;;;;;;;3.23;1.27;;;;;;;;;;5086262;28;20202;-68
2023/03/06 05:01:05;;;;;;;1.70;1.60;;;;;;;;;;5084109;28;20264;-68
2023/03/06 05:03:32;;;;;;;1.97;1.27;;;;;;;;;;5086026;28;20312;-68
2023/03/06 05:05:59;;;;;;;1.57;1.47;;;;;;;;;;5085809;28;21063;-68
2023/03/06 05:08:26;;;;;;;2.00;1.30;;;;;;;;;;5086307;28;20191;-68
2023/03/06 05:10:55;;;;;;;2.00;1.90;;;;;;;;;;5085987;28;20205;-68
2023/03/06 05:13:22;;;;;;;3.77;1.63;;;;;;;;;;5085952;28;20594;-68
2023/03/06 05:15:49;;;;;;;1.87;1.73;;;;;;;;;;5083975;28;20198;-68
2023/03/06 05:18:17;;;;;;;2.53;1.43;;;;;;;;;;5087270;28;20289;-68
2023/03/06 05:20:44;;;;;;;2.03;1.50;;;;;;;;;;5087640;28;20204;-68
2023/03/06 05:23:11;;;;;;;2.23;1.57;;;;;;;;;;5088801;28;20278;-68
2023/03/06 05:25:39;;;;;;;2.37;1.93;;;;;;;;;;5084658;28;20757;-68
2023/03/06 05:28:07;;;;;;;1.83;1.67;;;;;;;;;;5089088;28;20236;-68
2023/03/06 05:30:34;;;;;;;3.07;1.70;;;;;;;;;;5089436;28;20202;-68
2023/03/06 05:33:01;;;;;;;2.40;2.20;;;;;;;;;;5090358;28;20320;-68
2023/03/06 05:35:29;;;;;;;6.60;1.83;;;;;;;;;;5090084;28;20615;-68
2023/03/06 05:37:56;;;;;;;3.90;1.63;;;;;;;;;;5086295;28;20198;-68
2023/03/06 05:40:23;;;;;;;2.50;2.30;;;;;;;;;;5089724;28;20210;-69
2023/03/06 05:42:50;;;;;;;2.23;1.73;;;;;;;;;;5090561;28;20233;-68
2023/03/06 05:45:17;;;;;;;3.90;2.20;;;;;;;;;;5088576;28;20234;-68
2023/03/06 05:47:45;;;;;;;4.50;2.43;;;;;;;;;;5085372;28;20249;-68
2023/03/06 05:50:13;;;;;;;9.47;1.87;;;;;;;;;;5089884;28;20777;-68
2023/03/06 05:52:42;;;;;;;3.03;1.57;;;;;;;;;;5089544;28;20836;-67
2023/03/06 05:55:11;;;;;;;1.83;1.60;;;;;;;;;;5089149;28;20624;-68
2023/03/06 05:57:38;;;;;;;2.13;1.93;;;;;;;;;;5090066;28;20260;-68
2023/03/06 06:00:05;;;;;;;3.03;2.07;;;;;;;;;;5088991;28;20274;-68
2023/03/06 06:02:32;;;;;;;2.77;2.30;;;;;;;;;;5086406;28;20279;-68
2023/03/06 06:04:59;;;;;;;2.27;2.17;;;;;;;;;;5089395;28;20279;-68
2023/03/06 06:07:26;;;;;;;3.20;2.17;;;;;;;;;;5089547;28;20303;-68
2023/03/06 06:09:56;;;;;;;5.07;2.50;;;;;;;;;;5089239;28;20204;-68
2023/03/06 06:12:23;;;;;;;1.83;1.70;;;;;;;;;;5088829;28;20214;-68
2023/03/06 06:14:50;;;;;;;2.93;2.17;;;;;;;;;;5089335;28;20213;-66
2023/03/06 06:17:17;;;;;;;2.77;2.10;;;;;;;;;;5085590;28;20258;-68
2023/03/06 06:19:44;;;;;;;2.20;1.97;;;;;;;;;;5074650;28;20228;-68
2023/03/06 06:22:11;;;;;;;1.80;1.60;;;;;;;;;;5088936;28;20875;-68
2023/03/06 06:24:38;;;;;;;2.27;1.97;;;;;;;;;;5087842;28;20222;-68
2023/03/06 06:27:07;;;;;;;2.23;2.03;;;;;;;;;;5086001;28;20203;-68
2023/03/06 06:29:34;;;;;;;2.07;1.87;;;;;;;;;;5089199;28;20212;-68
2023/03/06 06:32:01;;;;;;;1.63;1.50;;;;;;;;;;5088862;28;20259;-64
2023/03/06 06:34:29;;;;;;;2.30;2.10;;;;;;;;;;5083472;28;20220;-67
2023/03/06 06:36:56;;;;;;;3.27;2.23;;;;;;;;;;5073607;28;20272;-68
2023/03/06 06:39:23;;;;;;;2.40;2.13;;;;;;;;;;5070911;28;20273;-68
2023/03/06 06:41:51;;;;;;;1.90;1.80;;;;;;;;;;5071877;28;20211;-67
2023/03/06 06:44:20;;;;;;;3.17;2.17;;;;;;;;;;5088820;28;20784;-67
2023/03/06 06:46:49;;;;;;;5.13;2.50;;;;;;;;;;5088563;28;20472;-68
2023/03/06 06:49:16;;;;;;;2.87;2.60;;;;;;;;;;5088580;28;20203;-68
2023/03/06 06:51:43;;;;;;;8.00;2.70;;;;;;;;;;5085147;28;20208;-71
2023/03/06 06:54:10;;;;;;;4.87;3.17;;;;;;;;;;5088616;28;20202;-67
2023/03/06 06:56:37;;;;;;;2.20;2.00;;;;;;;;;;5088320;28;20206;-67
2023/03/06 06:59:04;;;;;;;2.43;2.20;;;;;;;;;;5086360;28;20264;-67
2023/03/06 07:01:32;;;;;;;2.77;2.47;;;;;;;;;;5088611;28;20211;-67
2023/03/06 07:03:59;;;;;;;3.90;2.43;;;;;;;;;;5087988;28;20373;-67
2023/03/06 07:06:26;;;;;;;2.83;2.47;;;;;;;;;;5087873;28;20234;-67
2023/03/06 07:08:54;;;;;;;2.70;2.30;;;;;;;;;;5088321;28;20236;-68
2023/03/06 07:11:21;;;;;;;2.57;2.37;;;;;;;;;;5088196;28;20221;-67
2023/03/06 07:13:48;;;;;;;3.50;2.37;;;;;;;;;;5084280;28;20278;-67
2023/03/06 07:16:16;;;;;;;2.90;2.50;;;;;;;;;;5088491;28;20202;-67
2023/03/06 07:18:45;;;;;;;4.20;2.53;;;;;;;;;;5087970;28;20385;-68
2023/03/06 07:21:12;;;;;;;5.00;3.10;;;;;;;;;;5088065;28;20661;-67
2023/03/06 07:23:39;;;;;;;6.10;2.90;;;;;;;;;;5087941;28;20737;-69
2023/03/06 07:26:06;;;;;;;4.00;3.03;;;;;;;;;;5087953;28;20596;-68
2023/03/06 07:28:33;;;;;;;3.30;2.07;;;;;;;;;;5087791;28;20612;-68
2023/03/06 07:31:01;;;;;;;4.20;2.50;;;;;;;;;;5088369;28;20217;-67
2023/03/06 07:33:28;;;;;;;2.97;2.60;;;;;;;;;;5086840;28;20276;-67
2023/03/06 07:35:56;;;;;;;3.00;2.30;;;;;;;;;;5077546;28;20591;-67
2023/03/06 07:38:23;;;;;;;5.13;3.43;;;;;;;;;;5087727;28;20210;-68
2023/03/06 07:40:51;;;;;;;4.30;2.47;;;;;;;;;;5087879;28;20265;-67
2023/03/06 07:43:18;;;;;;;5.67;3.43;;;;;;;;;;5087334;28;20260;-68
2023/03/06 07:45:45;;;;;;;3.23;2.83;;;;;;;;;;5086994;28;20597;-68
2023/03/06 07:48:12;;;;;;;3.90;2.57;;;;;;;;;;5086948;28;20310;-68
2023/03/06 07:50:40;;;;;;;4.83;2.87;;;;;;;;;;5087059;28;20214;-68
2023/03/06 07:53:09;;;;;;;4.90;3.23;;;;;;;;;;5084504;28;20258;-68
2023/03/06 07:55:36;;;;;;;3.17;2.60;;;;;;;;;;5066905;28;20211;-67
2023/03/06 07:58:03;;;;;;;3.10;2.70;;;;;;;;;;5066541;28;20213;-69
2023/03/06 08:00:31;;;;;;;2.30;2.10;;;;;;;;;;5082987;28;20492;-68
2023/03/06 08:02:58;;;;;;;3.13;2.60;;;;;;;;;;5080874;28;20258;-68
2023/03/06 08:05:25;;;;;;;3.80;3.30;;;;;;;;;;5086201;28;20237;-68
2023/03/06 08:07:52;;;;;;;4.10;2.83;;;;;;;;;;5078195;28;20696;-68
2023/03/06 08:10:20;;;;;;;5.57;3.33;;;;;;;;;;5075576;28;20205;-68
2023/03/06 08:12:47;;;;;;;9.10;3.13;;;;;;;;;;5086097;28;20262;-68
2023/03/06 08:15:14;;;;;;;3.37;2.77;;;;;;;;;;5087062;28;20267;-68
2023/03/06 08:17:42;;;;;;;3.87;2.70;;;;;;;;;;5087117;28;20206;-68
2023/03/06 08:20:10;;;;;;;4.57;2.73;;;;;;;;;;5086893;28;20353;-68
2023/03/06 08:22:37;;;;;;;5.30;3.87;;;;;;;;;;5073703;28;20284;-68
2023/03/06 08:25:05;;;;;;;4.67;3.10;;;;;;;;;;5067029;28;20238;-68
2023/03/06 08:27:33;;;;;;;11.63;2.87;;;;;;;;;;5066843;28;20233;-68
2023/03/06 08:30:00;;;;;;;6.30;3.77;;;;;;;;;;5070849;28;20214;-68
2023/03/06 08:32:28;;;;;;;5.17;3.37;;;;;;;;;;5066960;28;20215;-67
2023/03/06 08:34:55;;;;;;;8.03;3.80;;;;;;;;;;5069586;28;20618;-67
2023/03/06 08:37:22;;;;;;;6.63;3.77;;;;;;;;;;5086700;28;20556;-67
2023/03/06 08:39:50;;;;;;;5.57;4.17;;;;;;;;;;5087035;28;20268;-67
2023/03/06 08:42:18;;;;;;;6.13;3.73;;;;;;;;;;5086912;28;20210;-68
2023/03/06 08:44:47;;;;;;;4.37;3.40;;;;;;;;;;5085142;28;20211;-67
2023/03/06 08:47:14;;;;;;;6.07;3.67;;;;;;;;;;5077693;28;20207;-68
2023/03/06 08:49:41;;;;;;;3.20;2.80;;;;;;;;;;5066569;28;20207;-68
2023/03/06 08:52:08;;;;;;;5.03;3.70;;;;;;;;;;5072457;28;20735;-68
2023/03/06 08:54:36;;;;;;;5.63;3.50;;;;;;;;;;5090680;28;20679;-68
2023/03/06 08:57:03;;;;;;;5.30;3.57;;;;;;;;;;5082372;28;20195;-68
2023/03/06 08:59:30;;;;;;;6.10;4.03;;;;;;;;;;5069986;28;20566;-67
2023/03/06 09:01:58;;;;;;;4.07;3.57;;;;;;;;;;5071785;28;20298;-67
2023/03/06 09:04:25;;;;;;;6.10;3.10;;;;;;;;;;5080947;28;20688;-67
2023/03/06 09:06:52;;;;;;;6.30;3.93;;;;;;;;;;5089784;28;20299;-67
2023/03/06 09:09:19;;;;;;;7.10;3.23;;;;;;;;;;5090468;28;20755;-67
2023/03/06 09:11:46;;;;;;;8.93;4.07;;;;;;;;;;5089977;28;20205;-67
2023/03/06 09:14:14;;;;;;;7.70;4.17;;;;;;;;;;5089719;28;20214;-68
2023/03/06 09:16:41;;;;;;;3.37;2.80;;;;;;;;;;5085936;28;20251;-68
2023/03/06 09:19:09;;;;;;;5.57;3.17;;;;;;;;;;5089762;28;20275;-67
2023/03/06 09:21:36;;;;;;;5.67;3.50;;;;;;;;;;5089344;28;20218;-65
2023/03/06 09:24:03;;;;;;;7.23;3.97;;;;;;;;;;5089942;28;20206;-65
2023/03/06 09:26:30;;;;;;;4.70;3.50;;;;;;;;;;5089202;28;20601;-68
2023/03/06 09:28:57;;;;;;;5.00;3.37;;;;;;;;;;5080163;28;20211;-66
2023/03/06 09:31:25;;;;;;;8.30;3.70;;;;;;;;;;5074588;28;20255;-66
2023/03/06 09:33:52;;;;;;;5.70;3.40;;;;;;;;;;5089366;28;20198;-67
2023/03/06 09:36:22;;;;;;;6.50;3.67;;;;;;;;;;5089047;28;20625;-69
2023/03/06 09:38:49;;;;;;;8.80;4.60;;;;;;;;;;5083519;28;20673;-67
2023/03/06 09:41:22;;;;;;;5.70;3.93;;;;;;;;;;5075098;28;20226;-67
2023/03/06 09:43:50;;;;;;;5.70;3.93;;;;;;;;;;5089852;28;20259;-68
2023/03/06 09:46:20;;;;;;;7.47;4.90;;;;;;;;;;5089550;28;20229;-67
2023/03/06 09:48:54;;;;;;;9.80;5.07;;;;;;;;;;5080380;28;20628;-67
2023/03/06 09:51:25;;;;;;;8.60;4.63;;;;;;;;;;5089409;28;20294;-67
2023/03/06 09:53:59;;;;;;;8.73;5.43;;;;;;;;;;5089504;28;20222;-67
2023/03/06 09:56:30;;;;;;;6.60;3.90;;;;;;;;;;5089529;28;20198;-67
2023/03/06 09:58:59;;;;;;;7.00;4.17;;;;;;;;;;5087377;28;20267;-67
2023/03/06 10:01:28;;;;;;;9.57;3.97;;;;;;;;;;5087099;28;20275;-67
2023/03/06 10:03:58;;;;;;;6.33;3.90;;;;;;;;;;5087374;28;20221;-68
2023/03/06 10:06:29;;;;;;;8.57;4.60;;;;;;;;;;5087067;28;20237;-67
2023/03/06 10:08:58;;;;;;;6.30;4.17;;;;;;;;;;5089406;28;20286;-67
2023/03/06 10:11:28;;;;;;;4.63;3.23;;;;;;;;;;5088982;28;20206;-67
2023/03/06 10:14:01;;;;;;;5.97;4.00;;;;;;;;;;5089071;28;20793;-68
2023/03/06 10:16:29;;;;;;;8.90;4.03;;;;;;;;;;5088903;28;20244;-67
2023/03/06 10:19:00;;;;;;;7.27;4.30;;;;;;;;;;5089483;28;20203;-67
2023/03/06 10:21:34;;;;;;;6.77;4.47;;;;;;;;;;5083719;28;20280;-67
2023/03/06 10:24:03;;;;;;;8.73;4.80;;;;;;;;;;5068767;28;20720;-67
2023/03/06 10:26:34;;;;;;;4.00;3.40;;;;;;;;;;5087873;28;20223;-68
2023/03/06 10:29:09;;;;;;;4.57;2.93;;;;;;;;;;5084117;28;20217;-68
2023/03/06 10:31:37;;;;;;;5.67;3.97;;;;;;;;;;5089263;28;20667;-68
2023/03/06 10:34:09;;;;;;;3.13;2.83;;;;;;;;;;5084218;28;20215;-68
2023/03/06 10:36:38;;;;;;;2.73;2.53;;;;;;;;;;5086293;28;20210;-68
2023/03/06 10:39:09;;;;;;;3.53;3.23;;;;;;;;;;5088168;28;20240;-67
2023/03/06 10:41:37;;;;;;;9.53;5.17;;;;;;;;;;5081285;28;20203;-67
2023/03/06 10:44:24;;;;;;;9.57;4.63;;;;;;;;;;5068898;28;20206;-67
2023/03/06 10:46:53;;;;;;;4.23;3.20;;;;;;;;;;5071388;28;20222;-67
2023/03/06 10:49:24;;;;;;;4.33;2.40;;;;;;;;;;5067049;28;20261;-66
2023/03/06 10:51:57;;;;;;;9.77;3.67;;;;;;;;;;5068297;28;20554;-66
2023/03/06 10:54:24;;;;;;;5.30;3.10;;;;;;;;;;5068586;28;20211;-67
2023/03/06 10:56:51;;;;;;;5.03;3.23;;;;;;;;;;5068214;28;20206;-67
2023/03/06 10:59:21;;;;;;;4.23;2.57;;;;;;;;;;5076818;28;20973;-67
2023/03/06 11:01:49;;;;;;;2.63;2.13;;;;;;;;;;5081466;28;20305;-70
2023/03/06 11:04:26;;;;;;;3.00;2.67;;;;;;;;;;5086885;28;20579;-67
2023/03/06 11:07:11;;;;;;;5.07;3.70;;;;;;;;;;5088051;28;20242;-67
2023/03/06 11:09:39;;;;;;;4.23;3.00;;;;;;;;;;5075005;28;20613;-68
2023/03/06 11:12:24;;;;;;;5.73;3.30;;;;;;;;;;5088569;28;20202;-68
2023/03/06 11:15:09;;;;;;;3.87;2.83;;;;;;;;;;5087781;28;20205;-68
2023/03/06 11:17:38;;;;;;;4.30;3.07;;;;;;;;;;5086566;28;20198;-67
2023/03/06 11:20:13;;;;;;;6.63;3.30;;;;;;;;;;5070116;28;20215;-67
2023/03/06 11:22:40;;;;;;;5.67;3.40;;;;;;;;;;5073381;28;20226;-67
2023/03/06 11:25:10;;;;;;;5.77;3.70;;;;;;;;;;5085045;28;20203;-68
2023/03/06 11:27:41;;;;;;;5.37;4.07;;;;;;;;;;5087552;28;20238;-67
2023/03/06 11:30:15;;;;;;;5.80;3.93;;;;;;;;;;5083416;28;20237;-68
2023/03/06 11:32:44;;;;;;;5.70;3.57;;;;;;;;;;5084757;28;20253;-68
2023/03/06 11:35:13;;;;;;;5.47;3.97;;;;;;;;;;5077129;28;20267;-68
2023/03/06 11:37:43;;;;;;;5.97;3.47;;;;;;;;;;5087025;28;20198;-68
2023/03/06 11:40:16;;;;;;;6.70;3.80;;;;;;;;;;5080629;28;20251;-66
2023/03/06 11:42:44;;;;;;;7.37;4.90;;;;;;;;;;5073022;28;20672;-75
2023/03/06 11:45:24;;;;;;;5.10;4.07;;;;;;;;;;5081500;28;20949;-68
2023/03/06 11:47:54;;;;;;;4.70;3.90;;;;;;;;;;5082482;28;20225;-68
2023/03/06 11:50:25;;;;;;;7.30;4.60;;;;;;;;;;5082250;28;20206;-68
2023/03/06 11:52:54;;;;;;;8.37;3.53;;;;;;;;;;5087513;28;20657;-67
2023/03/06 11:55:27;;;;;;;11.33;4.27;;;;;;;;;;5077578;28;20213;-68
2023/03/06 11:58:00;;;;;;;5.33;3.43;;;;;;;;;;5067421;28;20279;-68
2023/03/06 12:00:33;;;;;;;5.47;3.93;;;;;;;;;;5068032;28;20252;-67
2023/03/06 12:03:08;;;;;;;5.90;4.13;;;;;;;;;;5079305;28;20301;-68
2023/03/06 12:05:37;;;;;;;7.53;3.97;;;;;;;;;;5077775;28;20665;-68
2023/03/06 12:08:14;;;;;;;5.90;3.90;;;;;;;;;;5087468;28;20637;-67
2023/03/06 12:10:46;;;;;;;9.60;4.20;;;;;;;;;;5084571;28;20218;-68
2023/03/06 12:13:22;;;;;;;7.53;3.97;;;;;;;;;;5086203;28;20236;-68
2023/03/06 12:15:56;;;;;;;7.60;3.93;;;;;;;;;;5067136;28;20298;-68
2023/03/06 12:18:35;;;;;;;8.37;4.60;;;;;;;;;;5082269;28;20719;-67
2023/03/06 12:21:06;;;;;;;7.63;4.13;;;;;;;;;;5070846;28;20317;-68
2023/03/06 12:23:45;;;;;;;5.73;3.90;;;;;;;;;;5086690;28;20206;-68
2023/03/06 12:26:25;;;;;;;5.20;3.77;;;;;;;;;;5089477;28;20275;-68
2023/03/06 12:29:01;;;;;;;6.27;3.70;;;;;;;;;;5089019;28;20201;-67
2023/03/06 12:31:39;;;;;;;6.10;4.37;;;;;;;;;;5086807;28;20214;-67
2023/03/06 12:34:11;;;;;;;7.43;4.07;;;;;;;;;;5087350;28;20434;-67
2023/03/06 12:36:42;;;;;;;6.33;3.90;;;;;;;;;;5088390;28;20214;-67
2023/03/06 12:39:10;;;;;;;5.03;3.83;;;;;;;;;;5080610;28;20218;-67
2023/03/06 12:41:52;;;;;;;6.30;4.50;;;;;;;;;;5090245;28;20305;-67
2023/03/06 12:44:27;;;;;;;5.43;3.13;;;;;;;;;;5082248;28;20206;-67
2023/03/06 12:46:56;;;;;;;4.77;3.33;;;;;;;;;;5083326;28;20707;-67
2023/03/06 12:49:25;;;;;;;4.70;3.70;;;;;;;;;;5089857;28;20198;-67
2023/03/06 12:51:52;;;;;;;8.77;4.17;;;;;;;;;;5089544;28;20422;-67
2023/03/06 12:54:22;;;;;;;10.90;5.00;;;;;;;;;;5090211;28;20206;-67
2023/03/06 12:56:49;;;;;;;12.20;5.57;;;;;;;;;;5090191;28;20225;-67
2023/03/06 12:59:35;;;;;;;7.80;4.20;;;;;;;;;;5086726;28;20716;-67
2023/03/06 13:05:04;;;;;;;14.57;6.07;;;;;;;;;;5084469;28;20641;-68
2023/03/06 13:07:40;;;;;;;5.80;4.17;;;;;;;;;;5064882;28;20207;-67
2023/03/06 13:10:09;;;;;;;8.00;4.47;;;;;;;;;;5061980;28;20252;-67
2023/03/06 13:12:44;;;;;;;6.10;3.87;;;;;;;;;;5067001;28;20297;-68
2023/03/06 13:15:34;;;;;;;5.43;4.03;;;;;;;;;;5065453;28;20210;-68
2023/03/06 13:18:01;;;;;;;5.47;3.63;;;;;;;;;;5073930;28;20211;-68
2023/03/06 13:20:38;;;;;;;9.27;3.97;;;;;;;;;;5063210;28;20203;-68
2023/03/06 13:23:24;;;;;;;6.63;3.67;;;;;;;;;;5066654;28;20234;-67
2023/03/06 13:25:51;;;;;;;11.17;4.03;;;;;;;;;;5069837;28;20206;-67
2023/03/06 13:28:25;;;;;;;6.00;3.33;;;;;;;;;;5075349;28;20218;-68
2023/03/06 13:30:52;;;;;;;5.27;3.80;;;;;;;;;;5058778;28;20293;-69
2023/03/06 13:33:38;;;;;;;5.47;3.57;;;;;;;;;;5050153;28;20223;-68
2023/03/06 13:39:03;;;;;;;6.57;4.10;;;;;;;;;;5100447;27;20561;-68
2023/03/06 13:41:36;;;;;;;4.93;3.93;;;;;;;;;;5095735;28;20201;-68
2023/03/06 13:44:08;;;;;;;5.40;3.67;;;;;;;;;;5102674;28;20205;-66
2023/03/06 13:46:37;;;;;;;5.60;3.63;;;;;;;;;;5096073;28;20210;-68
2023/03/06 13:49:14;;;;;;;6.37;3.33;;;;;;;;;;5092847;28;20202;-68
2023/03/06 13:51:43;;;;;;;4.73;3.30;;;;;;;;;;5095550;28;20217;-67
2023/03/06 13:54:32;;;;;;;3.87;3.00;;;;;;;;;;5100902;28;20201;-68
2023/03/06 13:57:15;;;;;;;4.77;3.30;;;;;;;;;;5083876;28;20321;-67
2023/03/06 14:00:07;;;;;;;4.97;3.23;;;;;;;;;;5100482;28;20205;-67
2023/03/06 14:02:41;;;;;;;10.70;3.67;;;;;;;;;;5091494;28;20202;-67
2023/03/06 14:05:12;;;;;;;3.37;3.07;;;;;;;;;;5095744;28;21002;-67
2023/03/06 14:07:40;;;;;;;3.13;2.60;;;;;;;;;;5095319;28;20213;-67
2023/03/06 14:10:23;;;;;;;6.50;3.13;;;;;;;;;;5097634;28;20596;-67
2023/03/06 14:13:00;;;;;;;3.37;3.07;;;;;;;;;;5085524;28;20835;-66
2023/03/06 14:15:29;;;;;;;4.33;3.00;;;;;;;;;;5089369;28;20297;-67
2023/03/06 14:17:57;;;;;;;3.43;2.83;;;;;;;;;;5103675;28;20225;-66
2023/03/06 14:20:28;;;;;;;5.83;3.27;;;;;;;;;;5104013;28;20214;-68
2023/03/06 14:23:13;;;;;;;5.70;3.90;;;;;;;;;;5098725;28;20217;-68
2023/03/06 14:25:42;;;;;;;4.83;3.50;;;;;;;;;;5086963;28;20256;-68
2023/03/06 14:28:21;;;;;;;3.87;2.90;;;;;;;;;;5073354;28;20203;-68
2023/03/06 14:30:49;;;;;;;5.27;3.27;;;;;;;;;;5076334;28;20267;-68
2023/03/06 14:33:26;;;;;;;6.70;3.53;;;;;;;;;;5096123;28;20293;-67
2023/03/06 14:35:55;;;;;;;5.37;3.50;;;;;;;;;;5087078;28;20210;-68
2023/03/06 14:38:22;;;;;;;5.03;3.50;;;;;;;;;;5092756;28;20222;-68
2023/03/06 14:40:51;;;;;;;6.67;3.67;;;;;;;;;;5092744;28;20268;-68
2023/03/06 14:43:22;;;;;;;4.77;3.33;;;;;;;;;;5083768;28;20294;-68
2023/03/06 14:45:49;;;;;;;3.17;2.80;;;;;;;;;;5081182;28;20355;-68
2023/03/06 14:48:16;;;;;;;6.47;4.00;;;;;;;;;;5081846;28;20657;-68
2023/03/06 14:50:47;;;;;;;3.33;3.03;;;;;;;;;;5069736;28;20264;-68
2023/03/06 14:53:16;;;;;;;4.60;2.70;;;;;;;;;;5078042;28;20233;-68
2023/03/06 14:55:47;;;;;;;3.47;2.73;;;;;;;;;;5079860;28;20585;-67
2023/03/06 14:58:17;;;;;;;5.57;4.20;;;;;;;;;;5069982;28;20231;-67
2023/03/06 15:00:45;;;;;;;6.20;3.60;;;;;;;;;;5069084;28;20221;-68